Time;durP1;ratioP1;P1;durP2;ratioP2;P2;SDS_P1;SDS_P2;PMS_P1;PMS_P2;Temp;Humidity;BMP_temperature;BMP_pressure;BME280_temperature;BME280_humidity;BME280_pressure;Samples;Min_cycle;Max_cycle;Signal;HPM_P1;HPM_P2
2023/12/12 10:24:44;;;;;;;10.10;4.90;;;;;;;4.66;100.00;98301.66;264311;1305;544942;-82
2023/12/12 10:31:07;;;;;;;15.50;6.50;;;;;;;4.68;100.00;98307.50;272224;1267;22527;-81
2023/12/12 10:37:10;;;;;;;11.20;6.80;;;;;;;4.69;100.00;98312.86;272035;1267;1677548;-80
2023/12/12 10:43:12;;;;;;;16.40;7.30;;;;;;;4.66;100.00;98312.65;273299;1267;22233;-81
2023/12/12 10:49:14;;;;;;;13.90;6.80;;;;;;;4.70;100.00;98315.99;274272;1267;22958;-81
2023/12/12 10:55:18;;;;;;;15.10;6.50;;;;;;;4.77;100.00;98322.52;274241;1266;23351;-81
2023/12/12 11:01:23;;;;;;;;;;;;;;;4.77;100.00;98323.83;274266;1266;22458;-80
2023/12/12 11:07:26;;;;;;;11.20;6.70;;;;;;;4.79;100.00;98319.23;274354;1269;22391;-81
2023/12/12 11:13:32;;;;;;;10.10;5.60;;;;;;;4.88;100.00;98315.70;274067;1266;23175;-81
2023/12/12 11:19:45;;;;;;;10.40;4.50;;;;;;;4.92;100.00;98316.71;273961;1267;22158;-82
2023/12/12 11:25:47;;;;;;;6.70;4.00;;;;;;;4.99;100.00;98322.01;273536;1267;22359;-82
2023/12/12 11:32:02;;;;;;;11.00;6.40;;;;;;;5.02;100.00;98331.84;273043;1266;23098;-82
2023/12/12 11:38:27;;;;;;;12.00;5.50;;;;;;;5.00;100.00;98330.32;272918;1267;22393;-82
2023/12/12 11:45:24;;;;;;;14.60;6.70;;;;;;;4.96;100.00;98327.90;274179;1266;22990;-83
2023/12/12 11:51:55;;;;;;;21.10;7.80;;;;;;;4.94;100.00;98324.59;272845;1266;22573;-82
2023/12/12 11:58:05;;;;;;;13.00;6.80;;;;;;;4.97;100.00;98325.60;273782;1266;22512;-82
2023/12/12 12:04:11;;;;;;;16.60;8.70;;;;;;;5.00;100.00;98329.92;273164;1267;22494;-84
2023/12/12 12:10:20;;;;;;;16.80;10.00;;;;;;;5.04;100.00;98328.39;274243;1269;22189;-82
2023/12/12 12:16:43;;;;;;;19.60;10.10;;;;;;;5.10;100.00;98330.38;274027;1266;22257;-83
2023/12/12 12:22:51;;;;;;;15.20;7.90;;;;;;;5.19;100.00;98331.67;273934;1267;22425;-84
2023/12/12 12:29:28;;;;;;;14.10;5.70;;;;;;;5.33;100.00;98328.23;274045;1267;22393;-82
2023/12/12 12:35:31;;;;;;;13.40;5.40;;;;;;;5.44;100.00;98327.09;273794;1267;22606;-84
2023/12/12 12:41:44;;;;;;;;;;;;;;;;;;;;;
2023/12/12 12:48:14;;;;;;;14.60;6.80;;;;;;;5.48;100.00;98334.23;273741;1267;22923;-83
2023/12/12 12:54:17;;;;;;;13.60;6.60;;;;;;;5.35;100.00;98339.22;273722;1266;22611;-83
2023/12/12 13:00:29;;;;;;;8.20;4.90;;;;;;;5.28;100.00;98336.83;272769;1266;24190;-85
2023/12/12 13:06:32;;;;;;;9.60;4.60;;;;;;;5.28;100.00;98335.58;273745;1270;22210;-82
2023/12/12 13:12:35;;;;;;;9.10;4.70;;;;;;;5.30;100.00;98336.79;274197;1263;22204;-83
2023/12/12 13:18:41;;;;;;;13.00;6.00;;;;;;;5.35;100.00;98340.06;273998;1267;23711;-83
2023/12/12 13:24:43;;;;;;;11.00;6.30;;;;;;;5.28;100.00;98336.97;272727;1266;25700;-82
2023/12/12 13:30:46;;;;;;;16.90;7.30;;;;;;;5.20;100.00;98337.19;274147;1256;22332;-83
2023/12/12 13:37:53;;;;;;;;;;;;;;;;;;;;;
2023/12/12 13:44:32;;;;;;;17.40;7.80;;;;;;;5.14;100.00;98333.97;273675;1266;22309;-84
2023/12/12 13:51:35;;;;;;;12.70;6.10;;;;;;;5.10;100.00;98332.09;273702;1267;22588;-84
2023/12/12 13:57:38;;;;;;;14.40;6.70;;;;;;;5.11;100.00;98331.17;272382;1266;23387;-87
2023/12/12 14:04:03;;;;;;;15.10;7.30;;;;;;;5.11;100.00;98330.23;272190;1266;22387;-84
2023/12/12 14:10:08;;;;;;;16.10;8.30;;;;;;;5.10;100.00;98328.52;272724;1266;23899;-85
2023/12/12 14:16:30;;;;;;;19.00;9.20;;;;;;;5.07;100.00;98326.27;273578;1266;23081;-84
2023/12/12 14:22:33;;;;;;;18.40;8.30;;;;;;;5.02;100.00;98315.11;272316;1263;22564;-84
2023/12/12 14:28:57;;;;;;;17.00;8.10;;;;;;;5.04;100.00;98309.40;273736;1266;22434;-84
2023/12/12 14:35:39;;;;;;;15.20;7.40;;;;;;;4.98;100.00;98304.62;274301;1273;22246;-84
2023/12/12 14:41:45;;;;;;;15.80;7.40;;;;;;;4.85;100.00;98295.64;274102;1269;22289;-84
2023/12/12 14:47:47;;;;;;;14.20;7.70;;;;;;;4.69;100.00;98299.63;274006;1269;23181;-85
2023/12/12 14:53:51;;;;;;;14.40;7.70;;;;;;;4.52;100.00;98308.67;274240;1266;22172;-84
2023/12/12 15:00:14;;;;;;;15.00;8.10;;;;;;;4.38;100.00;98311.29;274447;1273;22702;-84
2023/12/12 15:06:16;;;;;;;16.60;8.20;;;;;;;4.26;100.00;98316.26;274219;1269;23158;-84
2023/12/12 15:12:27;;;;;;;48.80;19.60;;;;;;;4.15;100.00;98318.91;273960;1270;22208;-84
2023/12/12 15:18:31;;;;;;;53.90;23.90;;;;;;;4.08;100.00;98317.27;273922;1269;22207;-85
2023/12/12 15:24:47;;;;;;;22.00;11.60;;;;;;;4.05;100.00;98316.65;274118;1269;23418;-84
2023/12/12 15:30:54;;;;;;;21.50;10.80;;;;;;;4.07;100.00;98315.55;274000;1266;22163;-84
2023/12/12 15:37:28;;;;;;;22.80;12.60;;;;;;;4.04;100.00;98316.16;274165;1273;22227;-84
2023/12/12 15:44:13;;;;;;;22.90;11.80;;;;;;;4.02;100.00;98319.27;274385;1269;23507;-85
2023/12/12 15:50:25;;;;;;;43.10;22.00;;;;;;;4.03;100.00;98319.52;274153;1266;22194;-84
2023/12/12 15:56:55;;;;;;;;;;;;;;;;;;;;;
2023/12/12 16:03:35;;;;;;;54.80;25.10;;;;;;;4.03;100.00;98314.34;273534;1270;22311;-85
2023/12/12 16:10:51;;;;;;;24.90;13.60;;;;;;;4.03;100.00;98312.17;273481;1267;22365;-84
2023/12/12 16:16:54;;;;;;;23.60;12.60;;;;;;;4.03;100.00;98313.42;273547;1267;22352;-84
2023/12/12 16:22:59;;;;;;;26.00;12.50;;;;;;;3.98;100.00;98303.02;273242;1270;23297;-82
2023/12/12 16:29:03;;;;;;;27.20;13.30;;;;;;;3.95;100.00;98296.86;272942;1267;22547;-83
2023/12/12 16:35:34;;;;;;;26.10;13.70;;;;;;;3.92;100.00;98297.89;272498;1261;22539;-84
2023/12/12 16:41:36;;;;;;;28.10;14.30;;;;;;;3.95;100.00;98300.30;272954;1267;22185;-84
2023/12/12 16:47:59;;;;;;;35.20;15.50;;;;;;;3.94;100.00;98295.70;273673;1267;22227;-84
2023/12/12 16:54:22;;;;;;;22.70;13.10;;;;;;;3.95;100.00;98291.54;272724;1266;22568;-82
2023/12/12 17:00:24;;;;;;;21.20;11.10;;;;;;;3.95;100.00;98291.45;271822;1267;22731;-84
2023/12/12 17:06:27;;;;;;;22.60;12.40;;;;;;;3.88;100.00;98292.52;273324;1267;23267;-84
2023/12/12 17:12:29;;;;;;;20.00;10.50;;;;;;;3.76;100.00;98290.12;271632;1267;22464;-83
2023/12/12 17:18:37;;;;;;;17.70;11.20;;;;;;;3.68;100.00;98285.81;272714;1267;22335;-85
2023/12/12 17:24:40;;;;;;;22.80;11.50;;;;;;;3.63;100.00;98283.67;274020;1253;22188;-84
2023/12/12 17:30:42;;;;;;;26.00;13.10;;;;;;;3.64;100.00;98275.73;273021;1267;23329;-84
2023/12/12 17:36:45;;;;;;;27.90;13.80;;;;;;;3.61;100.00;98267.84;271099;1264;22533;-82
2023/12/12 17:43:00;;;;;;;;;;;;;;;;;;;;;
2023/12/12 17:49:10;;;;;;;34.80;15.90;;;;;;;3.53;100.00;98270.63;274030;1264;22210;-83
2023/12/12 17:55:33;;;;;;;29.60;15.10;;;;;;;3.47;100.00;98275.50;274175;1257;22368;-83
2023/12/12 18:02:19;;;;;;;30.40;15.30;;;;;;;3.41;100.00;98276.64;274106;1267;22234;-83
2023/12/12 18:08:26;;;;;;;27.90;15.10;;;;;;;3.33;100.00;98267.23;274217;1266;23020;-83
2023/12/12 18:14:30;;;;;;;32.10;15.00;;;;;;;3.25;100.00;98262.23;274232;1265;22989;-83
2023/12/12 18:20:33;;;;;;;28.50;16.20;;;;;;;3.18;100.00;98263.49;274121;1266;22183;-83
2023/12/12 18:28:00;;;;;;;48.60;28.10;;;;;;;3.08;100.00;98255.96;273829;1270;22456;-83
2023/12/12 18:34:22;;;;;;;46.10;22.90;;;;;;;3.05;100.00;98257.41;273643;1269;22335;-84
2023/12/12 18:40:24;;;;;;;32.80;18.10;;;;;;;3.11;100.00;98256.55;273524;1269;22238;-83
2023/12/12 18:46:48;;;;;;;24.10;14.00;;;;;;;3.16;100.00;98256.48;273697;1273;22578;-83
2023/12/12 18:52:51;;;;;;;27.70;14.60;;;;;;;3.12;100.00;98252.75;273943;1276;22345;-83
2023/12/12 18:58:54;;;;;;;31.90;16.20;;;;;;;3.08;100.00;98250.92;274188;1273;23344;-83
2023/12/12 19:05:17;;;;;;;41.40;24.80;;;;;;;3.10;100.00;98248.98;274268;1264;22930;-84
2023/12/12 19:11:22;;;;;;;33.80;21.10;;;;;;;3.17;100.00;98243.83;274448;1273;22288;-83
2023/12/12 19:17:44;;;;;;;24.90;14.80;;;;;;;3.20;100.00;98235.73;274259;1267;23324;-83
2023/12/12 19:23:46;;;;;;;29.40;15.50;;;;;;;3.17;100.00;98225.30;274368;1266;22490;-84
2023/12/12 19:29:59;;;;;;;28.90;16.20;;;;;;;3.19;100.00;98216.68;273843;1253;22334;-86
2023/12/12 19:36:03;;;;;;;33.60;16.80;;;;;;;3.22;100.00;98221.03;274315;1266;22928;-84
2023/12/12 19:42:07;;;;;;;25.40;13.00;;;;;;;3.18;100.00;98229.41;272665;1267;22523;-83
2023/12/12 19:48:50;;;;;;;25.40;12.90;;;;;;;3.10;100.00;98234.91;274124;1266;22880;-83
2023/12/12 19:54:53;;;;;;;22.90;11.10;;;;;;;3.09;100.00;98223.67;273079;1266;22652;-84
2023/12/12 20:00:56;;;;;;;23.40;11.10;;;;;;;3.34;100.00;98216.94;271670;1266;23016;-84
2023/12/12 20:07:41;;;;;;;23.70;12.40;;;;;;;3.60;100.00;98208.13;271402;1266;22649;-84
2023/12/12 20:13:44;;;;;;;29.80;12.90;;;;;;;3.65;100.00;98195.39;271603;1266;22205;-84
2023/12/12 20:19:46;;;;;;;46.00;23.20;;;;;;;3.60;100.00;98185.84;272118;1262;22541;-83
2023/12/12 20:25:50;;;;;;;30.30;18.50;;;;;;;3.52;100.00;98179.54;273496;1266;22364;-83
2023/12/12 20:32:32;;;;;;;36.30;15.70;;;;;;;3.38;100.00;98191.84;273425;1260;23346;-84
2023/12/12 20:38:36;;;;;;;28.30;14.80;;;;;;;3.11;100.00;98213.83;271972;1266;22569;-83
2023/12/12 20:45:28;;;;;;;29.70;15.00;;;;;;;2.91;100.00;98226.02;273982;1266;22530;-85
2023/12/12 20:52:02;;;;;;;55.80;26.80;;;;;;;2.70;100.00;98220.70;272580;1266;22553;-83
2023/12/12 20:58:08;;;;;;;54.80;24.70;;;;;;;2.58;100.00;98222.89;273069;1266;22230;-84
2023/12/12 21:04:10;;;;;;;54.90;30.00;;;;;;;2.48;100.00;98220.73;274462;1270;22181;-84
2023/12/12 21:10:35;;;;;;;64.70;31.30;;;;;;;2.41;100.00;98207.48;273145;1266;22539;-83
2023/12/12 21:17:18;;;;;;;62.90;29.40;;;;;;;2.41;100.00;98190.33;274604;1266;22181;-83
2023/12/12 21:23:46;;;;;;;54.60;27.90;;;;;;;2.37;100.00;98190.39;273593;1267;23833;-82
2023/12/12 21:29:48;;;;;;;67.70;34.10;;;;;;;2.32;100.00;98177.02;272217;1266;22568;-84
2023/12/12 21:35:59;;;;;;;69.80;35.30;;;;;;;2.28;100.00;98165.41;273678;1266;22525;-84
2023/12/12 21:42:42;;;;;;;76.20;36.50;;;;;;;2.20;100.00;98163.48;273264;1269;22215;-83
2023/12/12 21:48:45;;;;;;;62.30;30.60;;;;;;;2.04;100.00;98159.05;274344;1267;23212;-84
2023/12/12 21:54:48;;;;;;;60.20;28.40;;;;;;;1.85;100.00;98157.58;273716;1266;22257;-84
2023/12/12 22:00:50;;;;;;;61.50;27.80;;;;;;;1.72;100.00;98153.00;273508;1266;22543;-84
2023/12/12 22:06:56;;;;;;;69.30;32.20;;;;;;;1.58;100.00;98151.40;271100;1254;23847;-84
2023/12/12 22:12:58;;;;;;;56.70;29.00;;;;;;;1.47;100.00;98140.89;271039;1265;24246;-84
2023/12/12 22:19:01;;;;;;;50.80;28.10;;;;;;;1.38;100.00;98136.20;271604;1266;22527;-84
2023/12/12 22:25:03;;;;;;;69.20;37.30;;;;;;;1.29;100.00;98124.43;270980;1266;23771;-84
2023/12/12 22:31:06;;;;;;;74.50;36.10;;;;;;;1.23;100.00;98127.67;271269;1266;22573;-84
2023/12/12 22:37:28;;;;;;;67.40;39.00;;;;;;;1.14;100.00;98120.74;272098;1266;210302;-84
2023/12/12 22:43:31;;;;;;;74.70;40.10;;;;;;;1.03;100.00;98122.55;274543;1267;23200;-83
2023/12/12 22:49:34;;;;;;;66.10;35.10;;;;;;;0.95;100.00;98120.11;272267;1266;23763;-84
2023/12/12 22:55:40;;;;;;;40.40;24.20;;;;;;;0.87;100.00;98121.50;271609;1266;22640;-84
2023/12/12 23:01:45;;;;;;;;;;;;;;;0.84;100.00;98103.55;271890;1266;22750;-84
2023/12/12 23:08:31;;;;;;;74.00;39.20;;;;;;;0.85;100.00;98088.11;271326;1265;22549;-84
2023/12/12 23:15:14;;;;;;;64.10;33.80;;;;;;;0.89;100.00;98071.52;271750;1266;22567;-84
2023/12/12 23:21:16;;;;;;;57.70;33.10;;;;;;;0.90;100.00;98066.25;271239;1263;22313;-83
2023/12/12 23:27:22;;;;;;;66.80;35.00;;;;;;;0.91;100.00;98068.14;272165;1266;22331;-83
2023/12/12 23:33:46;;;;;;;;;;;;;;;0.91;100.00;98070.62;273413;1265;22479;-83
2023/12/12 23:39:51;;;;;;;50.80;29.10;;;;;;;0.87;100.00;98059.08;272821;1266;23895;-83
2023/12/12 23:46:14;;;;;;;54.70;30.80;;;;;;;0.90;100.00;98050.73;274490;1266;22294;-84
2023/12/12 23:52:37;;;;;;;57.50;28.00;;;;;;;0.93;100.00;98047.42;274123;1266;22305;-84
2023/12/12 23:58:59;;;;;;;46.90;26.90;;;;;;;0.96;100.00;98048.21;274045;1266;23800;-84
